sensor_id;sensor_type;location;lat;lon;timestamp;pressure;altitude;pressure_sealevel;temperature;humidity
48027;BME280;50714;49.208;5.364;2022-10-31T00:09:37;99910.69;;;13.32;74.89
48027;BME280;50714;49.208;5.364;2022-10-31T00:19:37;99907.19;;;13.18;75.24
48027;BME280;50714;49.208;5.364;2022-10-31T00:29:37;99909.84;;;13.12;75.90
48027;BME280;50714;49.208;5.364;2022-10-31T00:39:38;99915.06;;;13.13;75.96
48027;BME280;50714;49.208;5.364;2022-10-31T00:49:38;99906.09;;;13.06;75.47
48027;BME280;50714;49.208;5.364;2022-10-31T00:59:38;99898.81;;;12.93;75.42
48027;BME280;50714;49.208;5.364;2022-10-31T01:09:39;99881.31;;;12.83;75.53
48027;BME280;50714;49.208;5.364;2022-10-31T01:19:39;99880.72;;;12.74;76.47
48027;BME280;50714;49.208;5.364;2022-10-31T01:29:40;99872.97;;;12.64;76.38
48027;BME280;50714;49.208;5.364;2022-10-31T01:39:40;99886.31;;;12.66;75.84
48027;BME280;50714;49.208;5.364;2022-10-31T01:49:54;99862.53;;;12.55;76.69
48027;BME280;50714;49.208;5.364;2022-10-31T01:59:59;99849.22;;;12.40;76.79
48027;BME280;50714;49.208;5.364;2022-10-31T02:10:02;99855.69;;;12.46;76.68
48027;BME280;50714;49.208;5.364;2022-10-31T02:30:23;99844.63;;;12.41;77.31
48027;BME280;50714;49.208;5.364;2022-10-31T02:40:32;99831.72;;;12.23;78.30
48027;BME280;50714;49.208;5.364;2022-10-31T02:50:35;99825.47;;;12.29;77.25
48027;BME280;50714;49.208;5.364;2022-10-31T03:10:59;99808.38;;;12.28;78.48
48027;BME280;50714;49.208;5.364;2022-10-31T03:21:16;99776.97;;;12.14;79.06
48027;BME280;50714;49.208;5.364;2022-10-31T03:31:24;99775.50;;;12.12;77.68
48027;BME280;50714;49.208;5.364;2022-10-31T03:41:27;99770.09;;;12.12;80.70
48027;BME280;50714;49.208;5.364;2022-10-31T04:01:46;99761.94;;;12.05;78.13
48027;BME280;50714;49.208;5.364;2022-10-31T04:11:51;99764.88;;;12.04;78.24
48027;BME280;50714;49.208;5.364;2022-10-31T04:21:53;99763.00;;;11.98;78.18
48027;BME280;50714;49.208;5.364;2022-10-31T04:31:53;99759.44;;;11.90;77.58
48027;BME280;50714;49.208;5.364;2022-10-31T04:41:54;99749.59;;;11.70;77.45
48027;BME280;50714;49.208;5.364;2022-10-31T04:51:54;99747.28;;;11.60;77.82
48027;BME280;50714;49.208;5.364;2022-10-31T05:01:54;99750.19;;;11.52;78.41
48027;BME280;50714;49.208;5.364;2022-10-31T05:11:55;99737.94;;;11.56;78.69
48027;BME280;50714;49.208;5.364;2022-10-31T05:21:55;99715.41;;;11.42;78.59
48027;BME280;50714;49.208;5.364;2022-10-31T05:31:56;99720.41;;;11.45;78.48
48027;BME280;50714;49.208;5.364;2022-10-31T05:41:56;99717.25;;;11.28;77.93
48027;BME280;50714;49.208;5.364;2022-10-31T05:51:56;99698.31;;;11.22;78.19
48027;BME280;50714;49.208;5.364;2022-10-31T06:01:57;99692.53;;;11.32;78.13
48027;BME280;50714;49.208;5.364;2022-10-31T06:11:57;99689.59;;;11.26;77.95
48027;BME280;50714;49.208;5.364;2022-10-31T06:21:57;99693.34;;;11.25;77.99
48027;BME280;50714;49.208;5.364;2022-10-31T06:31:58;99709.47;;;11.12;77.96
48027;BME280;50714;49.208;5.364;2022-10-31T06:41:58;99694.97;;;11.20;77.99
48027;BME280;50714;49.208;5.364;2022-10-31T06:51:58;99683.75;;;11.16;78.70
48027;BME280;50714;49.208;5.364;2022-10-31T07:01:59;99678.19;;;11.38;78.72
48027;BME280;50714;49.208;5.364;2022-10-31T07:11:59;99673.22;;;11.41;79.12
48027;BME280;50714;49.208;5.364;2022-10-31T07:21:59;99690.09;;;11.56;78.80
48027;BME280;50714;49.208;5.364;2022-10-31T07:32:00;99693.44;;;11.65;79.72
48027;BME280;50714;49.208;5.364;2022-10-31T07:42:01;99702.44;;;11.92;79.66
48027;BME280;50714;49.208;5.364;2022-10-31T07:52:02;99702.69;;;12.04;80.20
48027;BME280;50714;49.208;5.364;2022-10-31T08:02:02;99684.78;;;12.22;80.38
48027;BME280;50714;49.208;5.364;2022-10-31T08:12:03;99683.06;;;12.35;80.38
48027;BME280;50714;49.208;5.364;2022-10-31T08:22:03;99678.06;;;12.51;80.70
48027;BME280;50714;49.208;5.364;2022-10-31T08:32:04;99665.66;;;12.88;80.86
48027;BME280;50714;49.208;5.364;2022-10-31T08:42:04;99641.16;;;13.21;80.53
48027;BME280;50714;49.208;5.364;2022-10-31T08:52:05;99635.13;;;13.51;80.61
48027;BME280;50714;49.208;5.364;2022-10-31T09:02:06;99630.75;;;13.81;80.85
48027;BME280;50714;49.208;5.364;2022-10-31T09:12:07;99629.03;;;14.12;79.48
48027;BME280;50714;49.208;5.364;2022-10-31T09:22:07;99615.03;;;14.33;79.14
48027;BME280;50714;49.208;5.364;2022-10-31T09:32:08;99585.19;;;14.51;78.75
48027;BME280;50714;49.208;5.364;2022-10-31T09:42:34;99574.63;;;14.80;77.60
48027;BME280;50714;49.208;5.364;2022-10-31T09:52:41;99574.06;;;14.89;76.79
48027;BME280;50714;49.208;5.364;2022-10-31T10:13:06;99568.09;;;15.82;75.16
48027;BME280;50714;49.208;5.364;2022-10-31T10:43:51;99571.03;;;17.19;72.48
48027;BME280;50714;49.208;5.364;2022-10-31T10:53:58;99557.53;;;18.08;71.03
48027;BME280;50714;49.208;5.364;2022-10-31T11:04:02;99545.47;;;18.26;69.67
48027;BME280;50714;49.208;5.364;2022-10-31T11:14:11;99513.19;;;18.45;69.56
48027;BME280;50714;49.208;5.364;2022-10-31T11:24:15;99485.13;;;18.49;69.03
48027;BME280;50714;49.208;5.364;2022-10-31T11:34:38;99455.47;;;18.36;64.87
48027;BME280;50714;49.208;5.364;2022-10-31T11:44:43;99433.47;;;18.26;66.22
48027;BME280;50714;49.208;5.364;2022-10-31T11:54:57;99420.56;;;18.65;66.80
48027;BME280;50714;49.208;5.364;2022-10-31T12:55:37;99305.28;;;19.15;62.54
48027;BME280;50714;49.208;5.364;2022-10-31T13:05:56;99288.69;;;19.27;61.60
48027;BME280;50714;49.208;5.364;2022-10-31T13:16:18;99269.34;;;19.43;58.25
48027;BME280;50714;49.208;5.364;2022-10-31T13:26:40;99266.56;;;19.33;59.26
48027;BME280;50714;49.208;5.364;2022-10-31T13:36:48;99260.28;;;19.33;61.19
48027;BME280;50714;49.208;5.364;2022-10-31T13:46:55;99270.69;;;19.36;62.08
48027;BME280;50714;49.208;5.364;2022-10-31T13:56:55;99248.75;;;19.31;61.82
48027;BME280;50714;49.208;5.364;2022-10-31T14:07:06;99246.72;;;19.06;62.06
48027;BME280;50714;49.208;5.364;2022-10-31T14:17:16;99242.28;;;19.00;62.21
48027;BME280;50714;49.208;5.364;2022-10-31T14:58:17;99229.84;;;18.77;62.80
48027;BME280;50714;49.208;5.364;2022-10-31T15:08:37;99220.47;;;18.68;60.74
48027;BME280;50714;49.208;5.364;2022-10-31T15:18:46;99211.06;;;18.54;62.00
48027;BME280;50714;49.208;5.364;2022-10-31T15:29:01;99194.97;;;18.25;62.75
48027;BME280;50714;49.208;5.364;2022-10-31T15:39:02;99202.38;;;17.98;63.40
48027;BME280;50714;49.208;5.364;2022-10-31T15:49:02;99192.25;;;17.93;63.17
48027;BME280;50714;49.208;5.364;2022-10-31T15:59:03;99192.72;;;17.85;62.86
48027;BME280;50714;49.208;5.364;2022-10-31T16:09:20;99189.31;;;17.73;61.95
48027;BME280;50714;49.208;5.364;2022-10-31T16:19:24;99175.22;;;17.59;62.22
48027;BME280;50714;49.208;5.364;2022-10-31T16:29:48;99173.72;;;17.47;62.66
48027;BME280;50714;49.208;5.364;2022-10-31T16:39:48;99179.75;;;17.27;62.88
48027;BME280;50714;49.208;5.364;2022-10-31T16:49:48;99188.34;;;17.14;63.29
48027;BME280;50714;49.208;5.364;2022-10-31T16:59:51;99195.53;;;17.03;63.18
48027;BME280;50714;49.208;5.364;2022-10-31T17:09:53;99189.72;;;16.94;63.93
48027;BME280;50714;49.208;5.364;2022-10-31T17:19:54;99188.81;;;16.89;64.02
48027;BME280;50714;49.208;5.364;2022-10-31T17:29:54;99174.03;;;16.85;64.41
48027;BME280;50714;49.208;5.364;2022-10-31T17:39:54;99162.00;;;16.81;64.49
48027;BME280;50714;49.208;5.364;2022-10-31T17:49:55;99171.78;;;16.77;64.90
48027;BME280;50714;49.208;5.364;2022-10-31T17:59:55;99170.63;;;16.73;65.08
48027;BME280;50714;49.208;5.364;2022-10-31T18:09:56;99184.28;;;16.78;65.85
48027;BME280;50714;49.208;5.364;2022-10-31T18:19:56;99169.53;;;16.74;65.98
48027;BME280;50714;49.208;5.364;2022-10-31T18:29:56;99161.78;;;16.65;66.25
48027;BME280;50714;49.208;5.364;2022-10-31T18:39:57;99138.97;;;16.55;66.75
48027;BME280;50714;49.208;5.364;2022-10-31T18:49:57;99122.38;;;16.56;67.79
48027;BME280;50714;49.208;5.364;2022-10-31T18:59:58;99114.41;;;16.66;67.56
48027;BME280;50714;49.208;5.364;2022-10-31T19:09:58;99130.09;;;16.81;67.82
48027;BME280;50714;49.208;5.364;2022-10-31T19:19:58;99120.34;;;16.85;67.61
48027;BME280;50714;49.208;5.364;2022-10-31T19:30:00;99108.88;;;16.83;67.77
48027;BME280;50714;49.208;5.364;2022-10-31T19:40:01;99107.22;;;16.82;68.00
48027;BME280;50714;49.208;5.364;2022-10-31T19:50:01;99099.06;;;16.82;68.08
48027;BME280;50714;49.208;5.364;2022-10-31T20:00:04;99102.94;;;16.86;67.89
48027;BME280;50714;49.208;5.364;2022-10-31T20:10:05;99095.91;;;16.90;67.92
48027;BME280;50714;49.208;5.364;2022-10-31T20:20:07;99115.13;;;17.00;67.50
48027;BME280;50714;49.208;5.364;2022-10-31T20:30:08;99117.56;;;17.02;67.72
48027;BME280;50714;49.208;5.364;2022-10-31T20:40:09;99120.00;;;16.98;68.20
48027;BME280;50714;49.208;5.364;2022-10-31T20:50:09;99129.00;;;16.99;68.01
48027;BME280;50714;49.208;5.364;2022-10-31T21:00:10;99137.72;;;17.01;68.24
48027;BME280;50714;49.208;5.364;2022-10-31T21:10:11;99146.72;;;17.01;68.61
48027;BME280;50714;49.208;5.364;2022-10-31T21:20:14;99174.25;;;17.00;69.12
48027;BME280;50714;49.208;5.364;2022-10-31T21:30:15;99201.44;;;16.95;69.57
48027;BME280;50714;49.208;5.364;2022-10-31T21:40:15;99236.06;;;16.94;74.50
48027;BME280;50714;49.208;5.364;2022-10-31T21:50:16;99227.91;;;16.44;82.41
48027;BME280;50714;49.208;5.364;2022-10-31T22:00:16;99207.66;;;16.07;86.28
48027;BME280;50714;49.208;5.364;2022-10-31T22:10:17;99198.16;;;15.92;89.14
48027;BME280;50714;49.208;5.364;2022-10-31T22:20:17;99201.72;;;15.93;91.86
48027;BME280;50714;49.208;5.364;2022-10-31T22:30:20;99173.66;;;15.92;93.05
48027;BME280;50714;49.208;5.364;2022-10-31T22:40:20;99160.16;;;15.97;94.12
48027;BME280;50714;49.208;5.364;2022-10-31T22:50:21;99156.13;;;16.00;94.41
48027;BME280;50714;49.208;5.364;2022-10-31T23:00:21;99157.88;;;16.06;94.87
48027;BME280;50714;49.208;5.364;2022-10-31T23:10:21;99148.94;;;16.11;96.02
48027;BME280;50714;49.208;5.364;2022-10-31T23:20:32;99118.66;;;16.07;95.48
48027;BME280;50714;49.208;5.364;2022-10-31T23:30:32;99117.56;;;16.08;95.66
48027;BME280;50714;49.208;5.364;2022-10-31T23:40:32;99114.94;;;16.13;95.10
48027;BME280;50714;49.208;5.364;2022-10-31T23:50:35;99113.63;;;16.16;94.94
